Time;durP1;ratioP1;P1;durP2;ratioP2;P2;SDS_P1;SDS_P2;PMS_P1;PMS_P2;Temp;Humidity;BMP_temperature;BMP_pressure;BME280_temperature;BME280_humidity;BME280_pressure;Samples;Min_cycle;Max_cycle;Signal;HPM_P1;HPM_P2
2023/12/02 00:01:05;;;;;;;0.00;0.00;;;2.00;72.60;;;;;;5062282;28;20261;-26
2023/12/02 00:03:35;;;;;;;0.00;0.00;;;2.00;72.60;;;;;;5063347;28;20603;-26
2023/12/02 00:06:04;;;;;;;0.00;0.00;;;2.00;72.80;;;;;;5043529;28;20785;-26
2023/12/02 00:08:36;;;;;;;0.00;0.00;;;2.00;72.60;;;;;;5045408;28;20296;-26
2023/12/02 00:11:10;;;;;;;0.00;0.00;;;2.00;72.70;;;;;;5044409;28;20212;-26
2023/12/02 00:13:37;;;;;;;0.00;0.00;;;2.00;72.70;;;;;;5044012;28;20196;-25
2023/12/02 00:16:10;;;;;;;0.00;0.00;;;1.90;72.60;;;;;;5043867;28;20216;-26
2023/12/02 00:18:40;;;;;;;0.00;0.00;;;1.90;72.70;;;;;;5045531;28;20247;-26
2023/12/02 00:21:10;;;;;;;0.00;0.00;;;1.90;72.60;;;;;;5062441;28;20245;-26
2023/12/02 00:23:37;;;;;;;0.00;0.00;;;1.80;72.30;;;;;;5064400;28;20196;-26
2023/12/02 00:26:05;;;;;;;0.00;0.00;;;1.80;72.50;;;;;;5062982;28;20246;-26
2023/12/02 00:28:34;;;;;;;0.00;0.00;;;1.80;72.50;;;;;;5063996;28;20208;-26
2023/12/02 00:31:01;;;;;;;0.00;0.00;;;1.80;72.50;;;;;;5046877;28;20204;-26
2023/12/02 00:33:30;;;;;;;0.00;0.00;;;1.80;72.40;;;;;;5044623;28;20208;-26
2023/12/02 00:35:58;;;;;;;0.00;0.00;;;1.80;72.50;;;;;;5072394;28;20212;-26
2023/12/02 00:38:25;;;;;;;0.00;0.00;;;1.80;72.50;;;;;;5045402;28;20213;-26
2023/12/02 00:40:57;;;;;;;0.00;0.00;;;1.80;72.70;;;;;;5067076;28;20691;-26
2023/12/02 00:43:27;;;;;;;0.00;0.00;;;1.80;73.50;;;;;;5044853;28;20215;-26
2023/12/02 00:46:01;;;;;;;0.00;0.00;;;1.80;72.70;;;;;;5044553;28;20210;-26
2023/12/02 00:48:29;;;;;;;0.00;0.00;;;1.80;72.50;;;;;;5044969;28;20199;-26
2023/12/02 00:50:56;;;;;;;0.00;0.00;;;1.70;72.40;;;;;;5063439;28;20258;-26
2023/12/02 00:53:24;;;;;;;0.00;0.00;;;1.70;72.40;;;;;;5062958;28;20715;-26
2023/12/02 00:55:51;;;;;;;0.00;0.00;;;1.70;72.50;;;;;;5063759;28;20203;-25
2023/12/02 00:58:18;;;;;;;0.00;0.00;;;1.80;72.80;;;;;;5062886;28;20234;-26
2023/12/02 01:01:02;;;;;;;0.00;0.00;;;1.80;72.80;;;;;;5065048;28;20206;-25
2023/12/02 01:03:29;;;;;;;0.00;0.00;;;1.80;72.60;;;;;;5061642;28;20211;-25
2023/12/02 01:06:00;;;;;;;0.00;0.00;;;1.80;72.50;;;;;;5062840;28;20227;-26
2023/12/02 01:08:27;;;;;;;0.00;0.00;;;1.80;72.40;;;;;;5062850;28;20238;-25
2023/12/02 01:10:57;;;;;;;0.00;0.00;;;1.80;72.50;;;;;;5061971;28;20292;-25
2023/12/02 01:13:27;;;;;;;0.00;0.00;;;1.70;72.50;;;;;;5064444;28;20243;-25
2023/12/02 01:15:54;;;;;;;0.00;0.00;;;1.70;72.40;;;;;;5063825;28;20210;-26
2023/12/02 01:18:26;;;;;;;0.00;0.00;;;1.70;72.50;;;;;;5055427;28;20741;-26
2023/12/02 01:20:53;;;;;;;0.00;0.00;;;1.70;72.60;;;;;;5058064;28;20308;-26
2023/12/02 01:23:25;;;;;;;0.00;0.00;;;1.80;72.50;;;;;;5065305;28;20303;-26
2023/12/02 01:25:54;;;;;;;0.00;0.00;;;1.80;72.60;;;;;;5063874;28;20195;-26
2023/12/02 01:28:22;;;;;;;0.00;0.00;;;1.70;72.40;;;;;;5043904;28;20745;-25
2023/12/02 01:30:49;;;;;;;0.00;0.00;;;1.70;72.30;;;;;;5063085;28;20209;-26
2023/12/02 01:33:18;;;;;;;0.00;0.00;;;1.70;72.40;;;;;;5059171;28;20203;-25
2023/12/02 01:35:48;;;;;;;0.00;0.00;;;1.70;72.40;;;;;;5042763;28;20200;-25
2023/12/02 01:38:15;;;;;;;0.00;0.00;;;1.70;72.40;;;;;;5044215;28;20734;-26
2023/12/02 01:40:45;;;;;;;0.00;0.00;;;1.70;72.50;;;;;;5041508;28;20220;-25
2023/12/02 01:43:44;;;;;;;0.00;0.00;;;1.70;72.50;;;;;;5042802;28;20207;-25
2023/12/02 01:46:16;;;;;;;0.00;0.00;;;1.70;72.70;;;;;;5043781;28;20665;-26
2023/12/02 01:48:44;;;;;;;0.00;0.00;;;1.70;72.70;;;;;;5044456;28;20211;-25
2023/12/02 01:51:11;;;;;;;0.00;0.00;;;1.70;72.70;;;;;;5044791;28;20293;-25
2023/12/02 01:53:41;;;;;;;0.00;0.00;;;1.80;72.50;;;;;;5043952;28;20196;-25
2023/12/02 01:56:14;;;;;;;0.00;0.00;;;1.70;72.20;;;;;;5045551;28;20219;-25
2023/12/02 01:58:45;;;;;;;0.00;0.00;;;1.70;72.40;;;;;;5059669;28;20223;-25
2023/12/02 02:01:13;;;;;;;0.00;0.00;;;1.70;72.40;;;;;;5063481;28;20207;-25
2023/12/02 02:03:42;;;;;;;0.00;0.00;;;1.70;72.50;;;;;;5057761;28;20234;-25
2023/12/02 02:06:16;;;;;;;0.00;0.00;;;1.70;72.60;;;;;;5050669;28;20231;-25
2023/12/02 02:08:46;;;;;;;0.00;0.00;;;1.70;72.50;;;;;;5052722;28;20294;-26
2023/12/02 02:11:22;;;;;;;0.00;0.00;;;1.70;72.50;;;;;;5062446;28;20195;-25
2023/12/02 02:13:52;;;;;;;0.00;0.00;;;1.70;72.50;;;;;;5059971;28;20682;-25
2023/12/02 02:16:19;;;;;;;0.00;0.00;;;1.70;72.50;;;;;;5043155;28;20618;-25
2023/12/02 02:18:46;;;;;;;0.00;0.00;;;1.70;72.40;;;;;;5060875;28;20220;-25
2023/12/02 02:21:16;;;;;;;0.00;0.00;;;1.70;72.40;;;;;;5041819;28;20289;-25
2023/12/02 02:23:44;;;;;;;0.00;0.00;;;1.70;72.40;;;;;;5063088;28;20211;-25
2023/12/02 02:26:13;;;;;;;0.00;0.00;;;1.70;72.50;;;;;;5061425;28;20702;-25
2023/12/02 02:28:41;;;;;;;0.00;0.00;;;1.70;72.50;;;;;;5066608;28;20199;-26
2023/12/02 02:31:10;;;;;;;0.00;0.00;;;1.70;72.50;;;;;;5065666;28;20592;-26
2023/12/02 02:33:37;;;;;;;0.00;0.00;;;1.70;72.60;;;;;;5061690;28;20293;-25
2023/12/02 02:36:07;;;;;;;0.00;0.00;;;1.70;72.40;;;;;;5046306;28;20273;-25
2023/12/02 02:38:35;;;;;;;0.00;0.00;;;1.70;72.40;;;;;;5046973;28;20599;-25
2023/12/02 02:41:04;;;;;;;0.00;0.00;;;1.70;72.50;;;;;;5046190;28;20212;-25
2023/12/02 02:43:34;;;;;;;0.00;0.00;;;1.70;72.50;;;;;;5046163;28;20204;-25
2023/12/02 02:46:03;;;;;;;0.00;0.00;;;1.70;72.50;;;;;;5064918;28;20708;-25
2023/12/02 02:48:32;;;;;;;0.00;0.00;;;1.70;72.50;;;;;;5066701;28;20531;-25
2023/12/02 02:51:00;;;;;;;0.00;0.00;;;1.70;72.30;;;;;;5059986;28;20204;-25
2023/12/02 02:53:29;;;;;;;0.00;0.00;;;1.70;72.30;;;;;;5065342;28;20298;-25
2023/12/02 02:55:56;;;;;;;0.00;0.00;;;1.70;72.30;;;;;;5065161;28;20602;-25
2023/12/02 02:58:34;;;;;;;0.00;0.00;;;1.60;72.20;;;;;;5065700;28;20214;-25
2023/12/02 03:01:01;;;;;;;0.00;0.00;;;1.60;72.40;;;;;;5049776;28;20203;-25
2023/12/02 03:03:30;;;;;;;0.00;0.00;;;1.60;72.30;;;;;;5045446;28;20315;-25
2023/12/02 03:06:00;;;;;;;0.00;0.00;;;1.60;72.30;;;;;;5061839;28;20231;-25
2023/12/02 03:08:30;;;;;;;0.00;0.00;;;1.60;72.40;;;;;;5067321;28;20689;-25
2023/12/02 03:10:57;;;;;;;0.00;0.00;;;1.60;72.50;;;;;;5053247;28;20212;-25
2023/12/02 03:13:26;;;;;;;0.00;0.00;;;1.60;72.50;;;;;;5055078;28;20690;-25
2023/12/02 03:15:58;;;;;;;0.00;0.00;;;1.60;72.50;;;;;;5065213;28;20216;-25
2023/12/02 03:18:25;;;;;;;0.00;0.00;;;1.60;72.20;;;;;;5067667;28;20697;-25
2023/12/02 03:20:53;;;;;;;0.00;0.00;;;1.60;72.10;;;;;;5050627;28;20604;-25
2023/12/02 03:23:20;;;;;;;0.00;0.00;;;1.50;72.10;;;;;;5045304;28;20200;-25
2023/12/02 03:25:47;;;;;;;0.00;0.00;;;1.50;72.10;;;;;;5060691;28;20741;-25
2023/12/02 03:28:17;;;;;;;0.00;0.00;;;1.40;72.00;;;;;;5045377;28;20205;-25
2023/12/02 03:30:44;;;;;;;0.00;0.00;;;1.40;72.00;;;;;;5045317;28;20209;-25
2023/12/02 03:33:14;;;;;;;0.00;0.00;;;1.40;72.00;;;;;;5048415;28;20284;-25
2023/12/02 03:35:43;;;;;;;0.00;0.00;;;1.30;71.90;;;;;;5047883;28;20220;-25
2023/12/02 03:38:11;;;;;;;0.00;0.00;;;1.30;72.10;;;;;;5047372;28;20231;-25
2023/12/02 03:40:40;;;;;;;0.00;0.00;;;1.30;72.30;;;;;;5045934;28;20196;-25
2023/12/02 03:43:09;;;;;;;0.00;0.00;;;1.30;72.30;;;;;;5055684;28;20246;-25
2023/12/02 03:45:38;;;;;;;0.00;0.00;;;1.40;72.40;;;;;;5060323;28;20232;-25
2023/12/02 03:48:10;;;;;;;0.00;0.00;;;1.40;72.40;;;;;;5045387;28;20215;-25
2023/12/02 03:50:40;;;;;;;0.00;0.00;;;1.40;72.40;;;;;;5045759;28;20200;-25
2023/12/02 03:53:09;;;;;;;0.00;0.00;;;1.40;72.40;;;;;;5045438;28;20659;-25
2023/12/02 03:55:37;;;;;;;0.00;0.00;;;1.40;72.40;;;;;;5057062;28;20299;-25
2023/12/02 03:58:09;;;;;;;0.00;0.00;;;1.40;72.40;;;;;;5063367;28;20193;-25
2023/12/02 04:00:38;;;;;;;0.00;0.00;;;1.40;72.30;;;;;;5060958;28;20209;-24
2023/12/02 04:03:08;;;;;;;0.00;0.00;;;1.40;72.10;;;;;;5048235;28;20192;-25
2023/12/02 04:05:36;;;;;;;0.00;0.00;;;1.40;72.10;;;;;;5048322;28;20267;-25
2023/12/02 04:08:09;;;;;;;0.00;0.00;;;1.40;72.10;;;;;;5046963;28;20218;-25
2023/12/02 04:10:36;;;;;;;0.00;0.00;;;1.40;72.20;;;;;;5044063;28;20232;-24
2023/12/02 04:13:05;;;;;;;0.00;0.00;;;1.30;72.10;;;;;;5047733;28;20219;-25
2023/12/02 04:15:35;;;;;;;0.00;0.00;;;1.30;72.20;;;;;;5066198;28;20192;-25
2023/12/02 04:18:07;;;;;;;0.00;0.00;;;1.40;72.20;;;;;;5064777;28;20730;-25
2023/12/02 04:20:35;;;;;;;0.00;0.00;;;1.30;72.20;;;;;;5054272;28;20216;-25
2023/12/02 04:23:04;;;;;;;0.00;0.00;;;1.40;72.40;;;;;;5055131;28;20195;-25
2023/12/02 04:25:31;;;;;;;0.00;0.00;;;1.40;72.40;;;;;;5065921;28;20318;-24
2023/12/02 04:27:59;;;;;;;0.00;0.00;;;1.40;72.40;;;;;;5066399;28;20634;-25
2023/12/02 04:30:27;;;;;;;0.00;0.00;;;1.40;72.40;;;;;;5056934;28;20208;-25
2023/12/02 04:32:57;;;;;;;0.00;0.00;;;1.40;72.30;;;;;;5059646;28;20318;-25
2023/12/02 04:35:27;;;;;;;0.00;0.00;;;1.40;72.30;;;;;;5064778;28;20220;-25
2023/12/02 04:37:54;;;;;;;0.00;0.00;;;1.50;72.40;;;;;;5064258;28;20215;-25
2023/12/02 04:40:22;;;;;;;0.00;0.00;;;1.50;72.50;;;;;;5061218;28;20230;-25
2023/12/02 04:42:51;;;;;;;0.00;0.00;;;1.50;72.50;;;;;;5044116;28;20196;-25
2023/12/02 04:45:18;;;;;;;0.00;0.00;;;1.50;72.50;;;;;;5046006;28;20581;-25
2023/12/02 04:47:45;;;;;;;0.00;0.00;;;1.60;72.50;;;;;;5045908;28;20224;-25
2023/12/02 04:50:13;;;;;;;0.00;0.00;;;1.60;72.50;;;;;;5046657;28;20286;-25
2023/12/02 04:52:40;;;;;;;0.00;0.00;;;1.60;72.60;;;;;;5046716;28;20662;-25
2023/12/02 04:55:08;;;;;;;0.00;0.00;;;1.60;72.60;;;;;;5046970;28;20594;-25
2023/12/02 04:57:35;;;;;;;0.00;0.00;;;1.60;72.50;;;;;;5045524;28;20231;-25
2023/12/02 05:00:13;;;;;;;0.00;0.00;;;1.60;72.40;;;;;;5045581;28;20251;-26
2023/12/02 05:02:42;;;;;;;0.00;0.00;;;1.60;72.30;;;;;;5047434;28;20750;-25
2023/12/02 05:05:10;;;;;;;0.00;0.00;;;1.60;72.50;;;;;;5028626;28;20358;-25
2023/12/02 05:07:37;;;;;;;0.00;0.00;;;1.70;72.60;;;;;;5045250;28;20204;-25
2023/12/02 05:10:05;;;;;;;0.00;0.00;;;1.70;72.80;;;;;;5044457;28;20196;-25
2023/12/02 05:12:32;;;;;;;0.00;0.00;;;1.70;72.70;;;;;;5051510;28;20200;-25
2023/12/02 05:15:02;;;;;;;0.00;0.00;;;1.70;72.70;;;;;;5043448;28;20217;-25
2023/12/02 05:17:29;;;;;;;0.00;0.00;;;1.80;73.40;;;;;;5044965;28;20577;-25
2023/12/02 05:20:01;;;;;;;0.00;0.00;;;1.80;72.70;;;;;;5043820;28;20231;-25
2023/12/02 05:22:28;;;;;;;0.00;0.00;;;1.80;72.70;;;;;;5044105;28;20706;-25
2023/12/02 05:24:57;;;;;;;0.00;0.00;;;1.80;72.70;;;;;;5044643;28;20626;-25
2023/12/02 05:27:27;;;;;;;0.00;0.00;;;1.90;72.70;;;;;;5042754;28;20267;-25
2023/12/02 05:29:54;;;;;;;0.00;0.00;;;1.90;72.70;;;;;;5044750;28;20216;-25
2023/12/02 05:32:26;;;;;;;0.00;0.00;;;1.90;72.70;;;;;;5050942;28;20223;-25
2023/12/02 05:34:54;;;;;;;0.00;0.00;;;1.90;72.80;;;;;;5061276;28;20208;-25
2023/12/02 05:37:24;;;;;;;0.00;0.00;;;1.90;72.70;;;;;;5064263;28;20196;-25
2023/12/02 05:39:55;;;;;;;0.00;0.00;;;2.00;72.70;;;;;;5064159;28;20219;-25
2023/12/02 05:42:23;;;;;;;0.00;0.00;;;2.00;72.70;;;;;;5044983;28;21008;-25
2023/12/02 05:44:50;;;;;;;0.00;0.00;;;2.00;72.80;;;;;;5063016;28;20203;-25
2023/12/02 05:47:22;;;;;;;0.00;0.00;;;2.00;72.90;;;;;;5064399;28;20301;-25
2023/12/02 05:49:49;;;;;;;0.00;0.00;;;2.10;73.00;;;;;;5061176;28;20204;-25
2023/12/02 05:52:21;;;;;;;0.00;0.00;;;2.10;73.00;;;;;;5054001;28;20208;-25
2023/12/02 05:54:53;;;;;;;0.00;0.00;;;2.10;73.00;;;;;;5044380;28;20216;-25
2023/12/02 05:57:20;;;;;;;0.00;0.00;;;2.20;73.00;;;;;;5043729;28;20216;-25
2023/12/02 05:59:50;;;;;;;0.00;0.00;;;2.10;72.90;;;;;;5026347;28;20590;-25
2023/12/02 06:02:20;;;;;;;0.00;0.00;;;2.20;73.00;;;;;;5075421;28;20253;-25
2023/12/02 06:04:47;;;;;;;0.00;0.00;;;2.20;72.90;;;;;;5046857;28;20202;-26
2023/12/02 06:07:14;;;;;;;0.00;0.00;;;2.20;72.80;;;;;;5046366;28;20293;-25
2023/12/02 06:09:46;;;;;;;0.00;0.00;;;2.20;72.80;;;;;;5053762;28;20681;-25
2023/12/02 06:12:13;;;;;;;0.00;0.00;;;2.20;72.80;;;;;;5049504;28;20211;-25
2023/12/02 06:14:45;;;;;;;0.00;0.00;;;2.20;72.80;;;;;;5049893;28;20207;-25
2023/12/02 06:17:14;;;;;;;0.00;0.00;;;2.20;72.80;;;;;;5046506;28;20203;-25
2023/12/02 06:19:42;;;;;;;0.00;0.00;;;2.20;72.80;;;;;;5063978;28;20231;-25
2023/12/02 06:22:09;;;;;;;0.00;0.00;;;2.20;72.80;;;;;;5054720;28;20214;-25
2023/12/02 06:24:36;;;;;;;0.00;0.00;;;2.20;72.80;;;;;;5064681;28;20733;-25
2023/12/02 06:27:04;;;;;;;0.00;0.00;;;2.20;72.80;;;;;;5053314;28;20196;-25
2023/12/02 06:29:31;;;;;;;0.00;0.00;;;2.20;72.80;;;;;;5052185;28;20614;-25
2023/12/02 06:31:58;;;;;;;0.00;0.00;;;2.20;72.70;;;;;;5059374;28;20240;-25
2023/12/02 06:34:25;;;;;;;0.00;0.00;;;2.20;72.70;;;;;;5066147;28;20203;-25
2023/12/02 06:36:53;;;;;;;0.00;0.00;;;2.20;72.70;;;;;;5054870;28;20204;-25
2023/12/02 06:39:20;;;;;;;0.00;0.00;;;2.20;72.70;;;;;;5049269;28;20258;-25
2023/12/02 06:41:49;;;;;;;0.00;0.00;;;2.20;72.70;;;;;;5070957;28;20567;-25
2023/12/02 06:44:17;;;;;;;0.00;0.00;;;2.20;72.50;;;;;;5046300;28;20199;-25
2023/12/02 06:46:52;;;;;;;0.00;0.00;;;2.20;72.60;;;;;;5051098;28;20199;-24
2023/12/02 06:49:21;;;;;;;0.00;0.00;;;2.20;72.70;;;;;;5058113;28;20212;-25
2023/12/02 06:51:51;;;;;;;0.00;0.00;;;2.20;72.70;;;;;;5046465;28;20492;-25
2023/12/02 06:54:18;;;;;;;0.00;0.00;;;2.20;72.70;;;;;;5057892;28;20745;-25
2023/12/02 06:56:47;;;;;;;0.00;0.00;;;2.10;72.60;;;;;;5057422;28;20210;-25
2023/12/02 06:59:17;;;;;;;0.00;0.00;;;2.10;72.60;;;;;;5067405;28;20274;-25
2023/12/02 07:01:47;;;;;;;0.00;0.00;;;2.10;72.70;;;;;;5059903;28;20582;-24
2023/12/02 07:04:16;;;;;;;0.00;0.00;;;2.10;72.80;;;;;;5050452;28;20276;-24
2023/12/02 07:06:44;;;;;;;0.00;0.00;;;2.10;72.80;;;;;;5060519;28;20693;-25
2023/12/02 07:09:11;;;;;;;0.00;0.00;;;2.20;72.90;;;;;;5058221;28;20224;-25
2023/12/02 07:11:39;;;;;;;0.00;0.00;;;2.20;72.90;;;;;;5063581;28;20573;-25
2023/12/02 07:14:06;;;;;;;0.00;0.00;;;2.20;72.90;;;;;;5059658;28;20208;-25
2023/12/02 07:16:36;;;;;;;0.00;0.00;;;2.20;73.00;;;;;;5046227;28;20212;-25
2023/12/02 07:19:04;;;;;;;0.00;0.00;;;2.20;73.00;;;;;;5047122;28;20201;-25
2023/12/02 07:21:33;;;;;;;0.00;0.00;;;2.20;72.90;;;;;;5050502;28;20692;-25
2023/12/02 07:24:01;;;;;;;0.00;0.00;;;2.30;73.00;;;;;;5065663;28;20207;-25
2023/12/02 07:26:30;;;;;;;0.00;0.00;;;2.30;72.90;;;;;;5061650;28;20200;-25
2023/12/02 07:28:58;;;;;;;0.00;0.00;;;2.30;73.00;;;;;;5055478;28;20200;-24
2023/12/02 07:31:27;;;;;;;0.00;0.00;;;2.30;73.00;;;;;;5068351;28;20686;-25
2023/12/02 07:33:57;;;;;;;0.00;0.00;;;2.30;72.90;;;;;;5063571;28;20211;-25
2023/12/02 07:36:24;;;;;;;0.00;0.00;;;2.30;72.80;;;;;;5053478;28;20592;-25
2023/12/02 07:38:51;;;;;;;0.00;0.00;;;2.30;72.80;;;;;;5062109;28;20596;-25
2023/12/02 07:41:18;;;;;;;0.00;0.00;;;2.30;72.80;;;;;;5057636;28;20215;-25
2023/12/02 07:43:48;;;;;;;0.00;0.00;;;2.30;72.80;;;;;;5066031;28;20211;-25
2023/12/02 07:46:17;;;;;;;0.00;0.00;;;2.20;72.80;;;;;;5051751;28;20281;-25
2023/12/02 07:48:49;;;;;;;0.00;0.00;;;2.30;72.90;;;;;;5050780;28;20722;-25
2023/12/02 07:51:18;;;;;;;0.00;0.00;;;2.20;72.80;;;;;;5064102;28;20200;-25
2023/12/02 07:53:50;;;;;;;0.00;0.00;;;2.20;72.90;;;;;;5064135;28;20204;-25
2023/12/02 07:56:20;;;;;;;0.00;0.00;;;2.30;73.00;;;;;;5054657;28;20739;-25
2023/12/02 07:58:54;;;;;;;0.00;0.00;;;2.30;73.00;;;;;;5055346;28;20196;-24
2023/12/02 08:01:22;;;;;;;0.00;0.00;;;2.30;73.00;;;;;;5067573;28;20320;-25
2023/12/02 08:03:49;;;;;;;0.00;0.00;;;2.30;73.00;;;;;;5050044;28;20208;-25
2023/12/02 08:06:21;;;;;;;0.00;0.00;;;2.30;73.00;;;;;;5049224;28;20310;-25
2023/12/02 08:08:49;;;;;;;0.00;0.00;;;2.30;73.00;;;;;;5050369;28;20307;-25
2023/12/02 08:11:16;;;;;;;0.00;0.00;;;2.30;73.00;;;;;;5048917;28;20216;-24
2023/12/02 08:13:44;;;;;;;0.00;0.00;;;2.30;73.00;;;;;;5049986;28;20204;-24
2023/12/02 08:16:12;;;;;;;0.00;0.00;;;2.40;73.10;;;;;;5048920;28;20273;-25
2023/12/02 08:18:41;;;;;;;0.00;0.00;;;2.40;73.10;;;;;;5063415;28;20712;-25
2023/12/02 08:21:11;;;;;;;0.00;0.00;;;2.40;73.00;;;;;;5054262;28;20224;-25
2023/12/02 08:23:40;;;;;;;0.00;0.00;;;2.40;73.00;;;;;;5067831;28;20204;-25
2023/12/02 08:26:08;;;;;;;0.00;0.00;;;2.40;73.00;;;;;;5060624;28;20196;-25
2023/12/02 08:28:37;;;;;;;0.00;0.00;;;2.40;72.90;;;;;;5052102;28;20287;-25
2023/12/02 08:31:05;;;;;;;0.00;0.00;;;2.40;73.00;;;;;;5053086;28;20212;-25
2023/12/02 08:33:32;;;;;;;0.00;0.00;;;2.40;73.00;;;;;;5066721;28;20280;-24
2023/12/02 08:36:02;;;;;;;0.00;0.00;;;2.40;73.10;;;;;;5060190;28;20608;-24
2023/12/02 08:38:37;;;;;;;0.00;0.00;;;2.40;73.10;;;;;;5081525;28;20278;-25
2023/12/02 08:41:04;;;;;;;0.00;0.00;;;2.40;73.00;;;;;;5054032;28;20211;-25
2023/12/02 08:43:31;;;;;;;0.00;0.00;;;2.40;72.90;;;;;;5049260;28;20214;-24
2023/12/02 08:46:01;;;;;;;0.00;0.00;;;2.40;72.90;;;;;;5070603;28;20216;-25
2023/12/02 08:48:30;;;;;;;0.00;0.00;;;2.40;73.00;;;;;;5049944;28;20226;-25
2023/12/02 08:50:58;;;;;;;0.00;0.00;;;2.40;73.00;;;;;;5049015;28;20299;-25
2023/12/02 08:53:27;;;;;;;0.00;0.00;;;2.40;72.90;;;;;;5067377;28;20223;-25
2023/12/02 08:55:59;;;;;;;0.00;0.00;;;2.40;72.90;;;;;;5067349;28;20207;-25
2023/12/02 08:58:26;;;;;;;0.00;0.00;;;2.30;72.90;;;;;;5067623;28;20199;-25
2023/12/02 09:00:54;;;;;;;0.00;0.00;;;2.30;73.60;;;;;;5053365;28;20222;-25
2023/12/02 09:03:22;;;;;;;0.00;0.00;;;2.30;72.80;;;;;;5060961;28;20260;-25
2023/12/02 09:05:58;;;;;;;0.00;0.00;;;2.30;72.80;;;;;;5048715;28;20285;-25
2023/12/02 09:08:29;;;;;;;0.00;0.00;;;2.30;72.80;;;;;;5048866;28;20613;-24
2023/12/02 09:10:57;;;;;;;0.00;0.00;;;2.30;72.70;;;;;;5054530;28;20208;-25
2023/12/02 09:13:51;;;;;;;0.00;0.00;;;2.30;72.80;;;;;;5068723;28;20215;-25
2023/12/02 09:16:26;;;;;;;0.00;0.00;;;2.30;72.90;;;;;;5065017;28;20204;-25
2023/12/02 09:18:56;;;;;;;0.00;0.00;;;2.30;72.90;;;;;;5065863;28;20205;-25
2023/12/02 09:21:43;;;;;;;0.00;0.00;;;2.30;73.00;;;;;;5060190;28;20216;-25
2023/12/02 09:24:40;;;;;;;0.00;0.00;;;2.30;73.10;;;;;;5060043;28;20247;-25
2023/12/02 09:27:58;;;;;;;0.00;0.00;;;2.30;73.00;;;;;;5053780;28;20280;-25
2023/12/02 09:30:27;;;;;;;0.00;0.00;;;2.30;73.10;;;;;;5036776;28;20220;-25
2023/12/02 09:32:55;;;;;;;0.00;0.00;;;2.30;73.10;;;;;;5054557;28;20208;-25
2023/12/02 09:35:22;;;;;;;0.00;0.00;;;2.30;73.00;;;;;;5062302;28;20210;-25
2023/12/02 09:37:51;;;;;;;0.00;0.00;;;2.40;73.10;;;;;;5056038;28;20552;-25
2023/12/02 09:40:23;;;;;;;0.00;0.00;;;2.40;73.10;;;;;;5046844;28;20342;-25
2023/12/02 09:43:17;;;;;;;0.00;0.00;;;2.40;73.00;;;;;;5047548;28;20621;-25
2023/12/02 09:46:07;;;;;;;0.00;0.00;;;2.40;73.00;;;;;;5046833;28;20212;-25
2023/12/02 09:48:57;;;;;;;0.00;0.00;;;2.40;72.80;;;;;;5048668;28;20285;-25
2023/12/02 09:51:52;;;;;;;0.00;0.00;;;2.40;72.90;;;;;;5065042;28;20245;-25
2023/12/02 09:54:52;;;;;;;0.00;0.00;;;2.30;73.60;;;;;;5049596;28;20227;-25
2023/12/02 09:57:29;;;;;;;0.00;0.00;;;2.30;72.90;;;;;;5047188;28;20788;-25
2023/12/02 10:00:09;;;;;;;0.00;0.00;;;2.30;72.80;;;;;;5056341;28;20223;-34
2023/12/02 10:03:09;;;;;;;0.00;0.00;;;2.30;72.90;;;;;;5050956;28;20216;-34
2023/12/02 10:05:52;;;;;;;0.00;0.00;;;2.30;73.00;;;;;;5054512;28;20231;-33
2023/12/02 10:08:49;;;;;;;0.00;0.00;;;2.30;73.00;;;;;;5073777;28;20207;-34
2023/12/02 10:11:29;;;;;;;0.00;0.00;;;2.30;73.00;;;;;;5046619;28;20306;-34
2023/12/02 10:14:10;;;;;;;0.00;0.00;;;2.40;73.10;;;;;;5046223;28;20208;-33
2023/12/02 10:16:41;;;;;;;0.00;0.00;;;2.40;73.20;;;;;;5051505;28;20210;-34
2023/12/02 10:19:20;;;;;;;0.00;0.00;;;2.40;73.20;;;;;;5056901;28;20196;-33
2023/12/02 10:21:59;;;;;;;0.00;0.00;;;2.50;73.30;;;;;;5048283;28;20617;-33
2023/12/02 10:24:36;;;;;;;0.00;0.00;;;2.50;73.30;;;;;;5067783;28;20863;-34
2023/12/02 10:27:12;;;;;;;0.00;0.00;;;2.50;73.20;;;;;;5058879;28;20318;-33
2023/12/02 10:30:10;;;;;;;0.00;0.00;;;2.50;73.10;;;;;;5062298;28;20195;-33
2023/12/02 10:33:08;;;;;;;0.00;0.00;;;2.50;73.20;;;;;;5051059;28;20246;-34
2023/12/02 10:35:46;;;;;;;0.00;0.00;;;2.60;73.30;;;;;;5063895;28;20291;-34
2023/12/02 10:38:28;;;;;;;0.00;0.00;;;2.60;73.30;;;;;;5047796;28;20218;-34
2023/12/02 10:41:03;;;;;;;0.00;0.00;;;2.60;73.20;;;;;;5046401;28;20220;-33
2023/12/02 10:43:45;;;;;;;0.00;0.00;;;2.60;73.20;;;;;;5056503;28;20206;-33
2023/12/02 10:46:21;;;;;;;0.00;0.00;;;2.60;73.20;;;;;;5050371;28;20203;-33
2023/12/02 10:48:48;;;;;;;0.00;0.00;;;2.60;73.10;;;;;;5060979;28;20569;-34
2023/12/02 10:51:19;;;;;;;0.00;0.00;;;2.70;73.20;;;;;;5062892;28;20198;-34
2023/12/02 10:53:49;;;;;;;0.00;0.00;;;2.70;73.20;;;;;;5056865;28;20204;-34
2023/12/02 10:56:23;;;;;;;0.00;0.00;;;2.70;73.20;;;;;;5063109;28;20200;-33
2023/12/02 10:58:56;;;;;;;0.00;0.00;;;2.70;73.20;;;;;;5068771;28;20199;-33
2023/12/02 11:01:45;;;;;;;0.00;0.00;;;2.70;73.20;;;;;;5069675;28;20226;-34
2023/12/02 11:04:26;;;;;;;0.00;0.00;;;2.80;73.30;;;;;;5055459;28;20212;-34
2023/12/02 11:07:04;;;;;;;0.00;0.00;;;2.80;73.20;;;;;;5054382;28;20284;-33
2023/12/02 11:09:34;;;;;;;0.00;0.00;;;2.80;73.20;;;;;;5067855;28;20303;-33
2023/12/02 11:12:20;;;;;;;0.00;0.00;;;2.80;73.20;;;;;;5053902;28;20196;-33
2023/12/02 11:14:57;;;;;;;0.00;0.00;;;2.80;73.20;;;;;;5069766;28;20222;-33
2023/12/02 11:17:40;;;;;;;0.00;0.00;;;2.80;73.10;;;;;;5032855;28;20824;-34
2023/12/02 11:20:39;;;;;;;0.00;0.00;;;2.90;73.20;;;;;;5070346;28;20678;-34
2023/12/02 11:23:34;;;;;;;0.00;0.00;;;2.90;73.30;;;;;;5054034;28;20732;-34
2023/12/02 11:26:10;;;;;;;0.00;0.00;;;2.90;73.30;;;;;;5068124;28;20208;-33
2023/12/02 11:29:10;;;;;;;0.00;0.00;;;2.90;73.40;;;;;;5066112;28;20203;-34
2023/12/02 11:32:06;;;;;;;0.00;0.00;;;2.90;73.40;;;;;;5061500;28;20214;-34
2023/12/02 11:35:00;;;;;;;0.00;0.00;;;3.00;73.40;;;;;;5054904;28;20208;-33
2023/12/02 11:37:57;;;;;;;0.00;0.00;;;3.00;73.50;;;;;;5050138;28;20274;-33
2023/12/02 11:40:41;;;;;;;0.00;0.00;;;3.00;73.50;;;;;;5049310;28;20931;-33
2023/12/02 11:43:17;;;;;;;0.00;0.00;;;3.00;73.40;;;;;;5053493;28;20664;-33
2023/12/02 11:45:54;;;;;;;0.00;0.00;;;3.10;73.50;;;;;;5064203;28;20195;-33
2023/12/02 11:48:50;;;;;;;0.00;0.00;;;3.10;73.40;;;;;;5065798;28;20226;-34
2023/12/02 11:51:52;;;;;;;0.00;0.00;;;3.10;73.40;;;;;;5067604;28;20207;-34
2023/12/02 11:54:37;;;;;;;0.00;0.00;;;3.20;73.50;;;;;;5054619;28;20215;-33
2023/12/02 11:57:29;;;;;;;0.00;0.00;;;3.20;73.50;;;;;;5066430;28;20231;-34
2023/12/02 12:00:06;;;;;;;0.00;0.00;;;3.20;73.50;;;;;;5049667;28;20204;-33
2023/12/02 12:02:42;;;;;;;0.00;0.00;;;3.20;73.50;;;;;;5056575;28;20192;-34
2023/12/02 12:05:31;;;;;;;0.00;0.00;;;3.30;73.60;;;;;;5051136;28;20702;-34
2023/12/02 12:08:18;;;;;;;0.00;0.00;;;3.30;73.70;;;;;;5069580;28;20203;-34
2023/12/02 12:10:54;;;;;;;0.00;0.00;;;3.40;73.80;;;;;;5048926;28;20220;-34
2023/12/02 12:13:22;;;;;;;0.00;0.00;;;3.40;73.80;;;;;;5053304;28;20266;-33
2023/12/02 12:15:52;;;;;;;0.00;0.00;;;3.50;73.90;;;;;;5063839;28;20219;-34
2023/12/02 12:18:23;;;;;;;0.00;0.00;;;3.50;73.90;;;;;;5081107;28;20212;-34
2023/12/02 12:20:57;;;;;;;0.00;0.00;;;3.60;73.80;;;;;;5080361;28;20619;-33
2023/12/02 12:23:30;;;;;;;0.00;0.00;;;3.60;73.80;;;;;;5064155;28;20197;-34
2023/12/02 12:26:00;;;;;;;0.00;0.00;;;3.70;73.90;;;;;;5054762;28;20219;-33
2023/12/02 12:28:28;;;;;;;0.00;0.00;;;3.70;73.90;;;;;;5052311;28;20201;-33
2023/12/02 12:30:56;;;;;;;0.00;0.00;;;3.80;73.90;;;;;;5049574;28;20203;-34
2023/12/02 12:33:25;;;;;;;0.00;0.00;;;3.80;73.90;;;;;;5048820;28;20282;-33
2023/12/02 12:35:53;;;;;;;0.00;0.00;;;3.80;73.80;;;;;;5051142;28;20323;-33
2023/12/02 12:38:21;;;;;;;0.00;0.00;;;3.90;73.80;;;;;;5047940;28;20200;-33
2023/12/02 12:40:50;;;;;;;0.00;0.00;;;3.90;73.70;;;;;;5078409;28;20232;-33
2023/12/02 12:43:20;;;;;;;0.00;0.00;;;3.90;73.80;;;;;;5081764;28;20234;-34
2023/12/02 12:45:56;;;;;;;0.00;0.00;;;4.00;73.90;;;;;;5057268;28;20203;-34
2023/12/02 12:48:26;;;;;;;0.00;0.00;;;4.00;73.80;;;;;;5079931;28;20203;-34
2023/12/02 12:51:00;;;;;;;0.00;0.00;;;4.00;73.80;;;;;;5047365;28;20210;-34
2023/12/02 12:53:35;;;;;;;0.00;0.00;;;4.00;73.70;;;;;;5050217;28;20204;-33
2023/12/02 12:56:10;;;;;;;0.00;0.00;;;4.10;73.90;;;;;;5048697;28;20211;-34
2023/12/02 12:59:14;;;;;;;0.00;0.00;;;4.10;73.90;;;;;;5048940;28;20211;-33
2023/12/02 13:02:16;;;;;;;0.00;0.00;;;4.10;74.00;;;;;;5017036;28;20321;-34
2023/12/02 13:05:21;;;;;;;0.00;0.00;;;4.10;74.00;;;;;;5043566;28;20211;-34
2023/12/02 13:08:02;;;;;;;0.00;0.00;;;4.10;74.00;;;;;;4989515;28;20208;-34
2023/12/02 13:10:41;;;;;;;0.00;0.00;;;4.20;74.00;;;;;;5049571;28;20235;-33
2023/12/02 13:13:12;;;;;;;0.00;0.00;;;4.20;73.90;;;;;;5045842;28;20200;-33
2023/12/02 13:15:45;;;;;;;0.00;0.00;;;4.20;73.80;;;;;;5052765;28;20216;-33
2023/12/02 13:18:19;;;;;;;0.00;0.00;;;4.20;73.90;;;;;;5048192;28;20231;-33
2023/12/02 13:20:49;;;;;;;0.00;0.00;;;4.30;73.90;;;;;;5048154;28;20231;-34
2023/12/02 13:23:23;;;;;;;0.00;0.00;;;4.30;73.90;;;;;;5048416;28;20204;-33
2023/12/02 13:25:56;;;;;;;0.00;0.00;;;4.30;73.90;;;;;;5061640;28;20222;-34